sensor_id;sensor_type;location;lat;lon;timestamp;temperature;humidity
3262;DHT22;1643;47.746;9.000;2023-02-08T15:20:20;9.10;77.40
3262;DHT22;1643;47.746;9.000;2023-02-08T15:22:46;9.20;77.60
3262;DHT22;1643;47.746;9.000;2023-02-08T15:25:20;9.30;77.00
3262;DHT22;1643;47.746;9.000;2023-02-08T15:27:49;9.00;76.90
3262;DHT22;1643;47.746;9.000;2023-02-08T15:32:51;8.80;77.00
3262;DHT22;1643;47.746;9.000;2023-02-08T15:35:19;8.80;77.50
3262;DHT22;1643;47.746;9.000;2023-02-08T15:37:45;8.60;77.50
3262;DHT22;1643;47.746;9.000;2023-02-08T15:42:46;8.60;77.70
3262;DHT22;1643;47.746;9.000;2023-02-08T15:45:24;8.60;78.00
3262;DHT22;1643;47.746;9.000;2023-02-08T15:47:51;8.50;78.10
3262;DHT22;1643;47.746;9.000;2023-02-08T15:50:18;8.60;78.50
3262;DHT22;1643;47.746;9.000;2023-02-08T15:52:45;8.50;78.10
3262;DHT22;1643;47.746;9.000;2023-02-08T15:55:15;8.40;78.30
3262;DHT22;1643;47.746;9.000;2023-02-08T15:57:57;8.50;78.40
3262;DHT22;1643;47.746;9.000;2023-02-08T16:00:25;8.70;78.70
3262;DHT22;1643;47.746;9.000;2023-02-08T16:03:01;8.60;78.00
3262;DHT22;1643;47.746;9.000;2023-02-08T16:05:31;8.70;78.40
3262;DHT22;1643;47.746;9.000;2023-02-08T16:07:58;8.80;79.20
3262;DHT22;1643;47.746;9.000;2023-02-08T16:15:47;9.00;79.60
3262;DHT22;1643;47.746;9.000;2023-02-08T16:20:58;9.60;79.70
3262;DHT22;1643;47.746;9.000;2023-02-08T16:23:26;9.60;79.10
3262;DHT22;1643;47.746;9.000;2023-02-08T16:25:52;9.50;78.50
3262;DHT22;1643;47.746;9.000;2023-02-08T16:28:28;9.00;78.10
3262;DHT22;1643;47.746;9.000;2023-02-08T16:30:56;8.30;78.50
3262;DHT22;1643;47.746;9.000;2023-02-08T16:33:22;7.80;79.20
3262;DHT22;1643;47.746;9.000;2023-02-08T16:35:48;7.40;79.70
3262;DHT22;1643;47.746;9.000;2023-02-08T16:38:20;7.10;80.00
3262;DHT22;1643;47.746;9.000;2023-02-08T16:40:53;6.90;80.30
3262;DHT22;1643;47.746;9.000;2023-02-08T16:43:28;6.70;80.60
3262;DHT22;1643;47.746;9.000;2023-02-08T16:48:42;6.40;81.20
3262;DHT22;1643;47.746;9.000;2023-02-08T16:51:17;6.30;81.60
3262;DHT22;1643;47.746;9.000;2023-02-08T16:53:46;6.20;81.90
3262;DHT22;1643;47.746;9.000;2023-02-08T16:56:12;6.00;82.00
3262;DHT22;1643;47.746;9.000;2023-02-08T16:58:38;5.90;82.50
3262;DHT22;1643;47.746;9.000;2023-02-08T17:01:04;5.80;82.90
3262;DHT22;1643;47.746;9.000;2023-02-08T17:03:30;5.70;83.20
3262;DHT22;1643;47.746;9.000;2023-02-08T17:05:57;5.70;83.30
3262;DHT22;1643;47.746;9.000;2023-02-08T17:08:23;5.70;83.50
3262;DHT22;1643;47.746;9.000;2023-02-08T17:10:49;5.60;83.60
3262;DHT22;1643;47.746;9.000;2023-02-08T17:13:17;5.50;83.70
3262;DHT22;1643;47.746;9.000;2023-02-08T17:15:47;5.50;83.90
3262;DHT22;1643;47.746;9.000;2023-02-08T17:18:13;5.40;84.10
3262;DHT22;1643;47.746;9.000;2023-02-08T17:20:39;5.30;84.50
3262;DHT22;1643;47.746;9.000;2023-02-08T17:23:05;5.20;84.50
3262;DHT22;1643;47.746;9.000;2023-02-08T17:25:33;5.10;84.70
3262;DHT22;1643;47.746;9.000;2023-02-08T17:28:02;5.10;84.90
3262;DHT22;1643;47.746;9.000;2023-02-08T17:30:31;5.10;85.00
3262;DHT22;1643;47.746;9.000;2023-02-08T17:32:57;5.00;85.30
3262;DHT22;1643;47.746;9.000;2023-02-08T17:35:24;4.90;85.60
3262;DHT22;1643;47.746;9.000;2023-02-08T17:37:50;4.90;86.10
3262;DHT22;1643;47.746;9.000;2023-02-08T17:40:19;4.80;86.60
3262;DHT22;1643;47.746;9.000;2023-02-08T17:42:45;4.80;87.20
3262;DHT22;1643;47.746;9.000;2023-02-08T17:45:11;4.70;87.40
3262;DHT22;1643;47.746;9.000;2023-02-08T17:47:37;4.70;87.90
3262;DHT22;1643;47.746;9.000;2023-02-08T17:50:07;4.60;88.10
3262;DHT22;1643;47.746;9.000;2023-02-08T17:52:33;4.50;88.40
3262;DHT22;1643;47.746;9.000;2023-02-08T17:54:58;4.50;88.60
3262;DHT22;1643;47.746;9.000;2023-02-08T17:57:24;4.50;88.90
3262;DHT22;1643;47.746;9.000;2023-02-08T17:59:50;4.50;89.40
3262;DHT22;1643;47.746;9.000;2023-02-08T18:02:15;4.40;89.80
3262;DHT22;1643;47.746;9.000;2023-02-08T18:04:41;4.30;90.00
3262;DHT22;1643;47.746;9.000;2023-02-08T18:07:07;4.30;90.20
3262;DHT22;1643;47.746;9.000;2023-02-08T18:09:32;4.30;90.40
3262;DHT22;1643;47.746;9.000;2023-02-08T18:11:58;4.20;90.50
3262;DHT22;1643;47.746;9.000;2023-02-08T18:14:24;4.20;90.60
3262;DHT22;1643;47.746;9.000;2023-02-08T18:16:49;4.20;90.70
3262;DHT22;1643;47.746;9.000;2023-02-08T18:19:15;4.10;90.80
3262;DHT22;1643;47.746;9.000;2023-02-08T18:21:41;4.00;90.90
3262;DHT22;1643;47.746;9.000;2023-02-08T18:24:08;4.00;91.00
3262;DHT22;1643;47.746;9.000;2023-02-08T18:26:34;3.90;91.20
3262;DHT22;1643;47.746;9.000;2023-02-08T18:29:01;3.90;91.30
3262;DHT22;1643;47.746;9.000;2023-02-08T18:31:27;3.90;91.40
3262;DHT22;1643;47.746;9.000;2023-02-08T18:33:53;3.90;91.60
3262;DHT22;1643;47.746;9.000;2023-02-08T18:36:20;3.80;91.70
3262;DHT22;1643;47.746;9.000;2023-02-08T18:38:48;3.80;91.80
3262;DHT22;1643;47.746;9.000;2023-02-08T18:41:19;3.80;92.00
3262;DHT22;1643;47.746;9.000;2023-02-08T18:43:46;3.80;92.40
3262;DHT22;1643;47.746;9.000;2023-02-08T18:46:14;3.70;92.10
3262;DHT22;1643;47.746;9.000;2023-02-08T18:48:42;3.60;92.20
3262;DHT22;1643;47.746;9.000;2023-02-08T18:51:10;3.60;92.30
3262;DHT22;1643;47.746;9.000;2023-02-08T18:53:38;3.60;92.40
3262;DHT22;1643;47.746;9.000;2023-02-08T18:56:05;3.50;92.40
3262;DHT22;1643;47.746;9.000;2023-02-08T18:58:31;3.50;92.50
3262;DHT22;1643;47.746;9.000;2023-02-08T19:01:26;3.50;92.60
3262;DHT22;1643;47.746;9.000;2023-02-08T19:03:52;3.50;93.00
3262;DHT22;1643;47.746;9.000;2023-02-08T19:06:24;3.50;92.70
3262;DHT22;1643;47.746;9.000;2023-02-08T19:08:53;3.60;92.80
3262;DHT22;1643;47.746;9.000;2023-02-08T19:13:47;3.50;92.90
3262;DHT22;1643;47.746;9.000;2023-02-08T19:16:14;3.40;92.90
3262;DHT22;1643;47.746;9.000;2023-02-08T19:18:42;3.40;93.00
3262;DHT22;1643;47.746;9.000;2023-02-08T19:21:10;3.40;93.00
3262;DHT22;1643;47.746;9.000;2023-02-08T19:23:36;3.30;93.00
3262;DHT22;1643;47.746;9.000;2023-02-08T19:26:04;3.30;93.10
3262;DHT22;1643;47.746;9.000;2023-02-08T19:28:30;3.20;93.10
3262;DHT22;1643;47.746;9.000;2023-02-08T19:31:08;3.20;93.10
3262;DHT22;1643;47.746;9.000;2023-02-08T19:33:37;3.20;93.20
3262;DHT22;1643;47.746;9.000;2023-02-08T19:36:12;3.20;93.20
3262;DHT22;1643;47.746;9.000;2023-02-08T19:38:39;3.10;93.10
3262;DHT22;1643;47.746;9.000;2023-02-08T19:41:06;3.10;93.50
3262;DHT22;1643;47.746;9.000;2023-02-08T19:43:32;3.00;93.60
3262;DHT22;1643;47.746;9.000;2023-02-08T19:45:58;3.00;93.40
3262;DHT22;1643;47.746;9.000;2023-02-08T19:48:24;2.90;93.50
3262;DHT22;1643;47.746;9.000;2023-02-08T19:50:58;2.90;93.50
3262;DHT22;1643;47.746;9.000;2023-02-08T19:53:24;2.90;93.50
3262;DHT22;1643;47.746;9.000;2023-02-08T19:56:02;2.80;93.50
3262;DHT22;1643;47.746;9.000;2023-02-08T19:58:29;2.80;93.60
3262;DHT22;1643;47.746;9.000;2023-02-08T20:00:55;2.80;93.70
3262;DHT22;1643;47.746;9.000;2023-02-08T20:03:22;2.70;93.70
3262;DHT22;1643;47.746;9.000;2023-02-08T20:05:49;2.70;93.70
3262;DHT22;1643;47.746;9.000;2023-02-08T20:08:15;2.70;93.70
3262;DHT22;1643;47.746;9.000;2023-02-08T20:10:45;2.70;93.70
3262;DHT22;1643;47.746;9.000;2023-02-08T20:13:12;2.70;93.70
3262;DHT22;1643;47.746;9.000;2023-02-08T20:15:40;2.60;93.70
3262;DHT22;1643;47.746;9.000;2023-02-08T20:18:08;2.70;94.00
3262;DHT22;1643;47.746;9.000;2023-02-08T20:20:34;2.60;93.70
3262;DHT22;1643;47.746;9.000;2023-02-08T20:23:01;2.50;93.80
3262;DHT22;1643;47.746;9.000;2023-02-08T20:25:27;2.40;93.90
3262;DHT22;1643;47.746;9.000;2023-02-08T20:27:53;2.40;94.00
3262;DHT22;1643;47.746;9.000;2023-02-08T20:30:19;2.40;94.10
3262;DHT22;1643;47.746;9.000;2023-02-08T20:32:45;2.40;94.10
3262;DHT22;1643;47.746;9.000;2023-02-08T20:35:14;2.40;94.20
3262;DHT22;1643;47.746;9.000;2023-02-08T20:37:40;2.30;94.10
3262;DHT22;1643;47.746;9.000;2023-02-08T20:40:07;2.30;94.20
3262;DHT22;1643;47.746;9.000;2023-02-08T20:42:33;2.20;94.20
3262;DHT22;1643;47.746;9.000;2023-02-08T20:44:58;2.20;94.30
3262;DHT22;1643;47.746;9.000;2023-02-08T20:47:24;2.20;94.30
3262;DHT22;1643;47.746;9.000;2023-02-08T20:49:50;2.20;94.30
3262;DHT22;1643;47.746;9.000;2023-02-08T20:52:16;2.20;94.40
3262;DHT22;1643;47.746;9.000;2023-02-08T20:54:43;2.20;94.50
3262;DHT22;1643;47.746;9.000;2023-02-08T20:57:10;2.10;94.40
3262;DHT22;1643;47.746;9.000;2023-02-08T20:59:38;2.10;94.50
3262;DHT22;1643;47.746;9.000;2023-02-08T21:02:04;2.00;94.40
3262;DHT22;1643;47.746;9.000;2023-02-08T21:04:34;2.10;94.60
3262;DHT22;1643;47.746;9.000;2023-02-08T21:06:59;2.00;94.60
3262;DHT22;1643;47.746;9.000;2023-02-08T21:09:25;2.00;94.70
3262;DHT22;1643;47.746;9.000;2023-02-08T21:11:52;2.00;94.70
3262;DHT22;1643;47.746;9.000;2023-02-08T21:14:19;2.00;94.80
3262;DHT22;1643;47.746;9.000;2023-02-08T21:16:54;2.00;94.90
3262;DHT22;1643;47.746;9.000;2023-02-08T21:19:22;1.90;94.80
3262;DHT22;1643;47.746;9.000;2023-02-08T21:21:56;1.90;94.90
3262;DHT22;1643;47.746;9.000;2023-02-08T21:24:22;1.90;94.90
3262;DHT22;1643;47.746;9.000;2023-02-08T21:26:52;1.80;94.90
3262;DHT22;1643;47.746;9.000;2023-02-08T21:29:18;1.80;94.90
3262;DHT22;1643;47.746;9.000;2023-02-08T21:31:43;1.80;94.90
3262;DHT22;1643;47.746;9.000;2023-02-08T21:34:10;1.80;94.90
3262;DHT22;1643;47.746;9.000;2023-02-08T21:36:36;1.70;94.80
3262;DHT22;1643;47.746;9.000;2023-02-08T21:39:04;1.70;94.90
3262;DHT22;1643;47.746;9.000;2023-02-08T21:41:32;1.60;94.80
3262;DHT22;1643;47.746;9.000;2023-02-08T21:43:59;1.50;94.90
3262;DHT22;1643;47.746;9.000;2023-02-08T21:46:27;1.50;94.90
3262;DHT22;1643;47.746;9.000;2023-02-08T21:48:53;1.50;94.90
3262;DHT22;1643;47.746;9.000;2023-02-08T21:51:38;1.40;95.00
3262;DHT22;1643;47.746;9.000;2023-02-08T21:54:23;1.40;95.00
3262;DHT22;1643;47.746;9.000;2023-02-08T21:57:15;1.40;95.00
3262;DHT22;1643;47.746;9.000;2023-02-08T21:59:42;1.40;95.10
3262;DHT22;1643;47.746;9.000;2023-02-08T22:02:14;1.30;95.10
3262;DHT22;1643;47.746;9.000;2023-02-08T22:04:41;1.40;95.30
3262;DHT22;1643;47.746;9.000;2023-02-08T22:07:12;1.30;95.10
3262;DHT22;1643;47.746;9.000;2023-02-08T22:09:38;1.20;95.20
3262;DHT22;1643;47.746;9.000;2023-02-08T22:12:06;1.20;95.30
3262;DHT22;1643;47.746;9.000;2023-02-08T22:14:34;1.20;95.30
3262;DHT22;1643;47.746;9.000;2023-02-08T22:17:00;1.20;95.40
3262;DHT22;1643;47.746;9.000;2023-02-08T22:19:26;1.10;95.40
3262;DHT22;1643;47.746;9.000;2023-02-08T22:21:52;1.10;95.40
3262;DHT22;1643;47.746;9.000;2023-02-08T22:24:17;1.10;95.40
3262;DHT22;1643;47.746;9.000;2023-02-08T22:26:43;1.10;95.40
3262;DHT22;1643;47.746;9.000;2023-02-08T22:29:10;1.10;95.40
3262;DHT22;1643;47.746;9.000;2023-02-08T22:31:36;1.10;95.40
3262;DHT22;1643;47.746;9.000;2023-02-08T22:34:01;1.00;95.40
3262;DHT22;1643;47.746;9.000;2023-02-08T22:36:27;1.00;95.40
3262;DHT22;1643;47.746;9.000;2023-02-08T22:38:53;1.00;95.50
3262;DHT22;1643;47.746;9.000;2023-02-08T22:41:18;1.00;95.50
3262;DHT22;1643;47.746;9.000;2023-02-08T22:43:44;0.90;95.50
3262;DHT22;1643;47.746;9.000;2023-02-08T22:46:10;0.90;95.60
3262;DHT22;1643;47.746;9.000;2023-02-08T22:48:37;0.80;96.00
3262;DHT22;1643;47.746;9.000;2023-02-08T22:51:14;0.90;95.60
3262;DHT22;1643;47.746;9.000;2023-02-08T22:53:41;0.90;95.60
3262;DHT22;1643;47.746;9.000;2023-02-08T22:56:07;0.90;95.50
3262;DHT22;1643;47.746;9.000;2023-02-08T22:58:33;0.90;95.50
3262;DHT22;1643;47.746;9.000;2023-02-08T23:00:58;0.80;95.50
3262;DHT22;1643;47.746;9.000;2023-02-08T23:03:24;0.80;95.60
3262;DHT22;1643;47.746;9.000;2023-02-08T23:05:51;0.80;95.60
3262;DHT22;1643;47.746;9.000;2023-02-08T23:08:19;0.80;95.60
3262;DHT22;1643;47.746;9.000;2023-02-08T23:10:46;0.80;95.60
3262;DHT22;1643;47.746;9.000;2023-02-08T23:13:11;0.80;95.60
3262;DHT22;1643;47.746;9.000;2023-02-08T23:15:40;0.70;95.50
3262;DHT22;1643;47.746;9.000;2023-02-08T23:18:07;0.70;95.70
3262;DHT22;1643;47.746;9.000;2023-02-08T23:20:36;0.70;95.70
3262;DHT22;1643;47.746;9.000;2023-02-08T23:23:02;0.70;95.60
3262;DHT22;1643;47.746;9.000;2023-02-08T23:25:28;0.70;95.70
3262;DHT22;1643;47.746;9.000;2023-02-08T23:27:54;0.60;95.60
3262;DHT22;1643;47.746;9.000;2023-02-08T23:30:19;0.60;95.50
3262;DHT22;1643;47.746;9.000;2023-02-08T23:32:45;0.60;95.60
3262;DHT22;1643;47.746;9.000;2023-02-08T23:35:10;0.60;95.60
3262;DHT22;1643;47.746;9.000;2023-02-08T23:37:37;0.60;95.60
3262;DHT22;1643;47.746;9.000;2023-02-08T23:40:03;0.60;95.60
3262;DHT22;1643;47.746;9.000;2023-02-08T23:42:29;0.60;95.60
3262;DHT22;1643;47.746;9.000;2023-02-08T23:44:57;0.60;95.60
3262;DHT22;1643;47.746;9.000;2023-02-08T23:47:25;0.60;95.60
3262;DHT22;1643;47.746;9.000;2023-02-08T23:49:51;0.50;95.50
3262;DHT22;1643;47.746;9.000;2023-02-08T23:52:17;0.50;95.50
3262;DHT22;1643;47.746;9.000;2023-02-08T23:54:43;0.50;95.60
3262;DHT22;1643;47.746;9.000;2023-02-08T23:57:09;0.60;95.50
3262;DHT22;1643;47.746;9.000;2023-02-08T23:59:34;0.50;95.50
